Terminal Aerodrome Forecast
Issued by NWS

Home | Current Version | Previous Version | Text Only | Print | Product List | Glossary On
Versions: 1 2 3 4 5 6 7 8 9 10 11 12 13 14 15 16 17 18
000
FTUS43 KIND 272300
TAFLAF
TAF
KLAF 272326Z 2800/2824 35010KT P6SM SCT050
     FM280100 36007KT P6SM FEW050
     FM281100 01004KT P6SM SCT100 SCT250
     FM281900 36006KT P6SM SKC
      AMD LTD TO CLD VIS AND WIND 2801/2813=

USA.gov is the U.S. government's official web portal to all federal, state and local government web resources and services.